Maria S. Merian — DBBT — position and weather

sailwx.info

Track history (hours):
 
Tides and Currents Weather Stations Pressure Air Temp Water Temp Dewpoint Dewpoint Depression Visibility Wind Speed Wind Dir Waves Ship Positions

Oceanographic research ship Maria S. Merian (Germany)

Last reported at 2020-Aug-04 09:22 UTC. Time now 2020-Aug-10 02:33 UTC.
Position N 49°30' W 006°31'.

Length 94.8 m; beam 19.2 m; draft 6.5 m.

Type: Other ship. MMSI: 211753000.

Date/timePositionNaut miles runAvg speedWind from/ knotsBaromVisibWave heightAir tempDewpointWater temp
2020-Aug-04 09:22N 49°30' W 006°31'612.4
2020-Aug-04 08:54N 49°31' W 006°22'13012.5
2020-Aug-03 22:30N 49°59' W 003°05'5310.6
2020-Aug-03 17:30N 50°12' W 001°45'1212.3
2020-Aug-03 16:30N 50°15' W 001°26'1414.0
2020-Aug-03 15:31N 50°18' W 001°05'4214.4
2020-Aug-03 12:36N 50°29' W 000°01'2112.8
2020-Aug-03 11:00N 50°34' E 000°30'1212.1
2020-Aug-03 10:00N 50°40' E 000°46'612.1
2020-Aug-03 09:30N 50°43' E 000°54'612.3
2020-Aug-03 09:00N 50°47' E 001°02'2914.5
2020-Aug-03 07:00N 51°07' E 001°35'2214.7
2020-Aug-03 05:30N 51°26' E 001°54'1312.6
2020-Aug-03 04:30N 51°35' E 002°07'1211.9
2020-Aug-03 03:30N 51°44' E 002°20'4011.1
2020-Aug-02 23:52N 52°14' E 003°03'12412.0
2020-Aug-02 13:30N 53°41' E 005°30'612.8
2020-Aug-02 13:00N 53°43' E 005°41'612.8
2020-Aug-02 12:30N 53°45' E 005°51'3010.9
2020-Aug-02 09:44N 53°34' E 006°39'23 7.2
2020-Aug-02 06:28N 53°21' E 007°12'0 0.0
2020-Aug-02 04:58N 53°21' E 007°12'0 0.0
2020-Aug-02 04:28N 53°21' E 007°12'0 0.0
2020-Aug-02 03:58N 53°21' E 007°12'0 0.0
2020-Aug-02 02:58N 53°21' E 007°12'0 0.0
2020-Aug-02 01:58N 53°21' E 007°12'0 0.0
2020-Aug-02 00:58N 53°21' E 007°12'0 0.0
2020-Aug-01 22:28N 53°21' E 007°12'0 0.0
2020-Aug-01 15:58N 53°21' E 007°12'0 0.0
2020-Aug-01 13:58N 53°21' E 007°12'0 0.0
2020-Aug-01 11:28N 53°21' E 007°12'0 0.0
2020-Aug-01 09:28N 53°21' E 007°12'0 0.0
2020-Aug-01 05:28N 53°21' E 007°12'0 0.0
2020-Aug-01 02:58N 53°21' E 007°12'0 0.0
2020-Aug-01 02:28N 53°21' E 007°12'0 0.0
2020-Aug-01 00:28N 53°21' E 007°12'0 0.0
2020-Jul-31 23:58N 53°21' E 007°12'0 0.0
2020-Jul-31 21:28N 53°21' E 007°12'0 0.0
2020-Jul-31 17:58N 53°21' E 007°12'0 0.0
2020-Jul-31 15:28N 53°21' E 007°12'0 0.0
2020-Jul-31 11:58N 53°21' E 007°12'0 0.0
2020-Jul-31 09:58N 53°21' E 007°12'0 0.0
2020-Jul-31 06:28N 53°21' E 007°12'0 0.0
2020-Jul-31 05:58N 53°21' E 007°12'0 0.0
2020-Jul-31 04:58N 53°21' E 007°12'0 0.0
2020-Jul-31 03:58N 53°21' E 007°12'0 0.0
2020-Jul-31 00:58N 53°21' E 007°12'0 0.0
2020-Jul-31 00:28N 53°21' E 007°12'0 0.0
2020-Jul-30 22:28N 53°21' E 007°12'0 0.0
2020-Jul-30 21:29N 53°21' E 007°12'0 0.0
2020-Jul-30 20:28N 53°21' E 007°12'0 0.0
2020-Jul-30 19:28N 53°21' E 007°12'0 0.0
2020-Jul-30 13:28N 53°21' E 007°12'0 0.0
2020-Jul-30 10:28N 53°21' E 007°12'2 1.0
2020-Jul-30 09:01N 53°20' E 007°10'4 8.0
2020-Jul-30 08:31N 53°19' E 007°04'147 8.2
2020-Jul-29 14:28N 55°33' E 005°18'22211.5
2020-Jul-28 19:15N 58°60' E 002°47'  
Track history (hours):
 
Tides and Currents Weather Stations Pressure Air Temp Water Temp Dewpoint Dewpoint Depression Visibility Wind Speed Wind Dir Waves Ship Positions

Oceanographic research ship Maria S. Merian (Germany)

Last reported at 2020-Aug-04 09:22 UTC. Time now 2020-Aug-10 02:33 UTC.
Position N 49°30' W 006°31'.

Length 94.8 m; beam 19.2 m; draft 6.5 m.

Type: Other ship. MMSI: 211753000.

Date/timePositionNaut miles runAvg speedWind from/ knotsBaromVisibWave heightAir tempDewpointWater temp
2020-Aug-04 09:22N 49°30' W 006°31'612.4
2020-Aug-04 08:54N 49°31' W 006°22'13012.5
2020-Aug-03 22:30N 49°59' W 003°05'5310.6
2020-Aug-03 17:30N 50°12' W 001°45'1212.3
2020-Aug-03 16:30N 50°15' W 001°26'1414.0
2020-Aug-03 15:31N 50°18' W 001°05'4214.4
2020-Aug-03 12:36N 50°29' W 000°01'2112.8
2020-Aug-03 11:00N 50°34' E 000°30'1212.1
2020-Aug-03 10:00N 50°40' E 000°46'612.1
2020-Aug-03 09:30N 50°43' E 000°54'612.3
2020-Aug-03 09:00N 50°47' E 001°02'2914.5
2020-Aug-03 07:00N 51°07' E 001°35'2214.7
2020-Aug-03 05:30N 51°26' E 001°54'1312.6
2020-Aug-03 04:30N 51°35' E 002°07'1211.9
2020-Aug-03 03:30N 51°44' E 002°20'4011.1
2020-Aug-02 23:52N 52°14' E 003°03'12412.0
2020-Aug-02 13:30N 53°41' E 005°30'612.8
2020-Aug-02 13:00N 53°43' E 005°41'612.8
2020-Aug-02 12:30N 53°45' E 005°51'3010.9
2020-Aug-02 09:44N 53°34' E 006°39'23 7.2
2020-Aug-02 06:28N 53°21' E 007°12'0 0.0
2020-Aug-02 04:58N 53°21' E 007°12'0 0.0
2020-Aug-02 04:28N 53°21' E 007°12'0 0.0
2020-Aug-02 03:58N 53°21' E 007°12'0 0.0
2020-Aug-02 02:58N 53°21' E 007°12'0 0.0
2020-Aug-02 01:58N 53°21' E 007°12'0 0.0
2020-Aug-02 00:58N 53°21' E 007°12'0 0.0
2020-Aug-01 22:28N 53°21' E 007°12'0 0.0
2020-Aug-01 15:58N 53°21' E 007°12'0 0.0
2020-Aug-01 13:58N 53°21' E 007°12'0 0.0
2020-Aug-01 11:28N 53°21' E 007°12'0 0.0
2020-Aug-01 09:28N 53°21' E 007°12'0 0.0
2020-Aug-01 05:28N 53°21' E 007°12'0 0.0
2020-Aug-01 02:58N 53°21' E 007°12'0 0.0
2020-Aug-01 02:28N 53°21' E 007°12'0 0.0
2020-Aug-01 00:28N 53°21' E 007°12'0 0.0
2020-Jul-31 23:58N 53°21' E 007°12'0 0.0
2020-Jul-31 21:28N 53°21' E 007°12'0 0.0
2020-Jul-31 17:58N 53°21' E 007°12'0 0.0
2020-Jul-31 15:28N 53°21' E 007°12'0 0.0
2020-Jul-31 11:58N 53°21' E 007°12'0 0.0
2020-Jul-31 09:58N 53°21' E 007°12'0 0.0
2020-Jul-31 06:28N 53°21' E 007°12'0 0.0
2020-Jul-31 05:58N 53°21' E 007°12'0 0.0
2020-Jul-31 04:58N 53°21' E 007°12'0 0.0
2020-Jul-31 03:58N 53°21' E 007°12'0 0.0
2020-Jul-31 00:58N 53°21' E 007°12'0 0.0
2020-Jul-31 00:28N 53°21' E 007°12'0 0.0
2020-Jul-30 22:28N 53°21' E 007°12'0 0.0
2020-Jul-30 21:29N 53°21' E 007°12'0 0.0
2020-Jul-30 20:28N 53°21' E 007°12'0 0.0
2020-Jul-30 19:28N 53°21' E 007°12'0 0.0
2020-Jul-30 13:28N 53°21' E 007°12'0 0.0
2020-Jul-30 10:28N 53°21' E 007°12'2 1.0
2020-Jul-30 09:01N 53°20' E 007°10'4 8.0
2020-Jul-30 08:31N 53°19' E 007°04'147 8.2
2020-Jul-29 14:28N 55°33' E 005°18'22211.5
2020-Jul-28 19:15N 58°60' E 002°47'  

Dump ship's entire track history